Time;durP1;ratioP1;P1;durP2;ratioP2;P2;SDS_P1;SDS_P2;PMS_P1;PMS_P2;Temp;Humidity;BMP_temperature;BMP_pressure;BME280_temperature;BME280_humidity;BME280_pressure;Samples;Min_cycle;Max_cycle;Signal;HPM_P1;HPM_P2
2023/12/15 00:01:19;;;;;;;53.05;31.38;;;6.60;99.90;;;;;;5071455;28;20031;-79
2023/12/15 00:03:46;;;;;;;48.58;27.48;;;6.60;99.90;;;;;;5075875;28;20490;-79
2023/12/15 00:06:12;;;;;;;48.08;28.58;;;6.60;99.90;;;;;;5055507;28;20031;-79
2023/12/15 00:08:41;;;;;;;51.50;30.00;;;6.60;99.90;;;;;;5070903;28;20494;-78
2023/12/15 00:11:07;;;;;;;46.90;27.83;;;6.70;99.90;;;;;;5078566;28;20039;-79
2023/12/15 00:13:34;;;;;;;48.35;29.88;;;6.60;99.90;;;;;;5072000;28;20040;-79
2023/12/15 00:16:00;;;;;;;52.60;31.92;;;6.70;99.90;;;;;;5070903;28;20051;-80
2023/12/15 00:18:27;;;;;;;47.33;29.23;;;6.70;99.90;;;;;;5072716;28;20036;-80
2023/12/15 00:20:53;;;;;;;50.90;29.88;;;6.70;99.90;;;;;;5070023;28;20055;-78
2023/12/15 00:23:20;;;;;;;48.10;29.55;;;6.70;99.90;;;;;;5074255;28;20489;-79
2023/12/15 00:25:47;;;;;;;43.53;25.92;;;6.70;99.90;;;;;;5067406;28;20035;-79
2023/12/15 00:28:13;;;;;;;57.05;32.53;;;6.60;99.90;;;;;;5074590;28;20032;-80
2023/12/15 00:30:39;;;;;;;49.83;27.92;;;6.70;99.90;;;;;;5115504;27;20032;-79
2023/12/15 00:33:06;;;;;;;48.10;28.35;;;6.70;99.90;;;;;;5053243;28;20031;-79
2023/12/15 00:35:32;;;;;;;46.47;27.02;;;6.70;99.90;;;;;;5078127;28;20024;-79
2023/12/15 00:37:58;;;;;;;53.28;29.42;;;6.70;99.90;;;;;;5070008;28;20039;-80
2023/12/15 00:40:25;;;;;;;40.72;24.55;;;6.70;99.90;;;;;;5068346;28;20414;-78
2023/12/15 00:42:51;;;;;;;48.35;27.98;;;6.70;99.90;;;;;;5093570;28;20419;-79
2023/12/15 00:45:17;;;;;;;46.53;29.63;;;6.70;99.90;;;;;;5089078;28;20028;-79
2023/12/15 00:47:44;;;;;;;43.47;27.85;;;6.70;99.90;;;;;;5076281;28;20031;-77
2023/12/15 00:50:12;;;;;;;53.35;31.70;;;6.70;99.90;;;;;;5078678;28;20043;-81
2023/12/15 00:52:39;;;;;;;46.65;27.45;;;6.70;99.90;;;;;;5064872;28;20031;-80
2023/12/15 00:55:06;;;;;;;45.22;28.05;;;6.70;99.90;;;;;;5089996;28;20028;-80
2023/12/15 00:57:32;;;;;;;46.15;27.25;;;6.70;99.90;;;;;;5067569;28;20039;-78
2023/12/15 00:59:58;;;;;;;57.72;30.42;;;6.70;99.90;;;;;;5078485;28;20040;-80
2023/12/15 01:02:24;;;;;;;66.35;36.63;;;6.70;99.90;;;;;;5064966;28;20032;-80
2023/12/15 01:04:51;;;;;;;69.18;36.83;;;6.70;99.90;;;;;;5076876;28;20043;-81
2023/12/15 01:07:18;;;;;;;62.75;35.63;;;6.70;99.90;;;;;;5072552;28;20032;-81
2023/12/15 01:09:44;;;;;;;61.42;33.25;;;6.70;99.90;;;;;;5079816;28;20038;-80
2023/12/15 01:12:10;;;;;;;66.50;34.38;;;6.80;99.90;;;;;;5103194;27;20513;-81
2023/12/15 01:14:37;;;;;;;77.70;39.63;;;6.80;99.90;;;;;;5079985;28;20039;-79
2023/12/15 01:17:03;;;;;;;82.50;41.10;;;6.80;99.90;;;;;;5087629;28;20039;-80
2023/12/15 01:19:30;;;;;;;85.00;40.90;;;6.80;99.90;;;;;;5067212;28;20032;-81
2023/12/15 01:21:56;;;;;;;87.68;41.20;;;6.80;99.90;;;;;;5069553;28;20059;-80
2023/12/15 01:24:22;;;;;;;93.47;47.03;;;6.80;99.90;;;;;;5077481;28;20027;-80
2023/12/15 01:26:49;;;;;;;114.90;52.45;;;6.80;99.90;;;;;;5089575;28;20487;-81
2023/12/15 01:29:16;;;;;;;107.32;49.85;;;6.80;99.90;;;;;;5060002;28;20035;-79
2023/12/15 01:31:42;;;;;;;96.13;45.65;;;6.80;99.90;;;;;;5063338;28;20040;-78
2023/12/15 01:34:08;;;;;;;95.30;43.97;;;6.80;99.90;;;;;;5070569;28;20036;-81
2023/12/15 01:36:37;;;;;;;86.55;38.63;;;6.80;99.90;;;;;;5073594;28;20043;-79
2023/12/15 01:39:03;;;;;;;115.22;48.92;;;6.80;99.90;;;;;;5063649;28;20036;-80
2023/12/15 01:41:31;;;;;;;117.90;51.70;;;6.90;99.90;;;;;;5087317;28;20042;-80
2023/12/15 01:43:58;;;;;;;113.22;47.78;;;6.90;99.90;;;;;;5082107;28;20039;-79
2023/12/15 01:46:24;;;;;;;114.47;47.05;;;6.90;99.90;;;;;;5100924;28;20027;-79
2023/12/15 01:48:51;;;;;;;104.00;47.33;;;6.90;99.90;;;;;;5054210;28;20040;-80
2023/12/15 01:51:17;;;;;;;105.97;45.80;;;6.90;99.90;;;;;;5094870;28;20035;-80
2023/12/15 01:53:43;;;;;;;109.60;47.35;;;6.90;99.90;;;;;;5084436;28;20035;-80
2023/12/15 01:56:10;;;;;;;121.50;50.35;;;6.90;99.90;;;;;;5076388;27;20489;-80
2023/12/15 01:58:37;;;;;;;105.07;44.53;;;6.90;99.90;;;;;;5082194;28;20035;-79
2023/12/15 02:01:04;;;;;;;93.25;39.13;;;7.00;99.90;;;;;;5059385;28;20594;-80
2023/12/15 02:03:31;;;;;;;89.72;38.75;;;6.90;99.90;;;;;;5083208;28;20032;-80
2023/12/15 02:05:57;;;;;;;107.13;43.35;;;6.90;99.90;;;;;;5075637;28;20036;-80
2023/12/15 02:08:23;;;;;;;113.97;45.38;;;6.90;99.90;;;;;;5072233;28;20036;-81
2023/12/15 02:10:50;;;;;;;106.90;44.28;;;7.00;99.90;;;;;;5079605;28;20043;-81
2023/12/15 02:13:17;;;;;;;105.68;43.00;;;7.00;99.90;;;;;;5061271;28;20043;-80
2023/12/15 02:15:43;;;;;;;114.55;47.67;;;7.00;99.90;;;;;;5109058;27;20032;-81
2023/12/15 02:18:09;;;;;;;112.15;45.80;;;7.00;99.90;;;;;;5041927;28;20036;-80
2023/12/15 02:20:36;;;;;;;126.22;49.88;;;7.00;99.90;;;;;;5090971;28;20039;-81
2023/12/15 02:23:02;;;;;;;128.15;49.50;;;7.00;99.90;;;;;;5078029;28;20043;-80
2023/12/15 02:25:28;;;;;;;104.65;40.70;;;7.00;99.90;;;;;;5069331;28;20341;-82
2023/12/15 02:27:55;;;;;;;105.07;40.83;;;7.00;99.90;;;;;;5082576;28;20043;-81
2023/12/15 02:30:21;;;;;;;106.65;42.35;;;7.10;99.90;;;;;;5092226;28;20581;-81
2023/12/15 02:32:47;;;;;;;115.05;46.63;;;7.10;99.90;;;;;;5061210;28;20501;-79
2023/12/15 02:35:14;;;;;;;111.43;43.17;;;7.10;99.90;;;;;;5083199;28;20032;-81
2023/12/15 02:37:40;;;;;;;104.78;42.10;;;7.00;99.90;;;;;;5084972;28;20036;-81
2023/12/15 02:40:08;;;;;;;116.80;44.63;;;7.10;99.90;;;;;;5069327;28;20498;-80
2023/12/15 02:42:34;;;;;;;144.30;53.10;;;7.10;99.90;;;;;;5107702;27;20517;-81
2023/12/15 02:45:01;;;;;;;126.03;48.53;;;7.10;99.90;;;;;;5096890;28;20036;-81
2023/12/15 02:47:28;;;;;;;135.93;48.78;;;7.10;99.90;;;;;;5077862;28;20234;-81
2023/12/15 02:49:55;;;;;;;111.38;41.30;;;7.10;99.90;;;;;;5070905;28;20462;-80
2023/12/15 02:52:21;;;;;;;128.13;47.10;;;7.10;99.90;;;;;;5096100;28;20024;-79
2023/12/15 02:54:47;;;;;;;127.88;46.75;;;7.10;99.90;;;;;;5076721;28;20043;-79
2023/12/15 02:57:14;;;;;;;121.30;45.65;;;7.20;99.90;;;;;;5079884;28;20030;-81
2023/12/15 02:59:40;;;;;;;133.27;45.88;;;7.10;99.90;;;;;;5080767;28;20044;-80
2023/12/15 03:02:06;;;;;;;137.88;48.03;;;7.20;99.90;;;;;;5058271;28;20409;-79
2023/12/15 03:04:32;;;;;;;144.05;50.22;;;7.20;99.90;;;;;;5095797;27;20043;-80
2023/12/15 03:06:59;;;;;;;116.30;41.28;;;7.10;99.90;;;;;;5092056;28;20039;-80
2023/12/15 03:09:25;;;;;;;134.73;44.30;;;7.20;99.90;;;;;;5075838;28;20039;-79
2023/12/15 03:11:51;;;;;;;159.02;52.35;;;7.20;99.90;;;;;;5083534;28;20448;-80
2023/12/15 03:14:18;;;;;;;144.52;51.50;;;7.20;99.90;;;;;;5069254;28;20036;-80
2023/12/15 03:16:44;;;;;;;127.35;44.90;;;7.20;99.90;;;;;;5058613;28;20509;-79
2023/12/15 03:19:11;;;;;;;108.78;40.47;;;7.20;99.90;;;;;;5075309;28;20039;-80
2023/12/15 03:21:37;;;;;;;146.73;44.55;;;7.20;99.90;;;;;;5099086;28;20036;-80
2023/12/15 03:24:04;;;;;;;122.90;40.60;;;7.20;99.90;;;;;;5091771;28;20438;-80
2023/12/15 03:26:30;;;;;;;123.90;41.08;;;7.20;99.90;;;;;;5057894;28;20031;-80
2023/12/15 03:28:56;;;;;;;156.43;51.75;;;7.30;99.90;;;;;;5076726;28;20046;-77
2023/12/15 03:31:22;;;;;;;133.38;44.72;;;7.20;99.90;;;;;;5075025;28;20509;-80
2023/12/15 03:33:49;;;;;;;128.73;43.15;;;7.30;99.90;;;;;;5067609;28;20402;-78
2023/12/15 03:36:15;;;;;;;133.02;45.20;;;7.30;99.90;;;;;;5091973;28;20046;-80
2023/12/15 03:38:41;;;;;;;116.13;40.17;;;7.30;99.90;;;;;;5058284;28;20039;-79
2023/12/15 03:41:08;;;;;;;132.52;45.22;;;7.30;99.90;;;;;;5092852;27;20729;-80
2023/12/15 03:43:35;;;;;;;113.32;39.38;;;7.30;99.90;;;;;;5068083;28;20051;-78
2023/12/15 03:46:01;;;;;;;137.43;45.97;;;7.30;99.90;;;;;;5092396;27;20046;-79
2023/12/15 03:48:28;;;;;;;149.73;48.00;;;7.30;99.90;;;;;;5074693;28;20369;-79
2023/12/15 03:50:54;;;;;;;139.38;44.38;;;7.30;99.90;;;;;;5087620;28;20048;-80
2023/12/15 03:53:20;;;;;;;128.48;42.13;;;7.30;99.90;;;;;;5069461;28;20044;-81
2023/12/15 03:55:47;;;;;;;143.32;46.80;;;7.30;99.90;;;;;;5089310;28;20475;-79
2023/12/15 03:58:13;;;;;;;139.98;43.67;;;7.40;99.90;;;;;;5083193;28;20414;-80
2023/12/15 04:00:39;;;;;;;104.97;36.92;;;7.40;99.90;;;;;;5081776;28;20046;-81
2023/12/15 04:03:05;;;;;;;119.93;37.72;;;7.40;99.90;;;;;;5097367;28;20474;-80
2023/12/15 04:05:32;;;;;;;162.85;43.78;;;7.40;99.90;;;;;;5066209;28;20043;-79
2023/12/15 04:07:59;;;;;;;172.75;49.35;;;7.40;99.90;;;;;;5074535;28;20031;-80
2023/12/15 04:10:25;;;;;;;143.48;45.15;;;7.40;99.90;;;;;;5104634;27;20443;-79
2023/12/15 04:12:51;;;;;;;128.65;41.97;;;7.40;99.90;;;;;;5076300;28;20058;-79
2023/12/15 04:15:19;;;;;;;118.50;39.67;;;7.50;99.90;;;;;;5087712;28;20513;-80
2023/12/15 04:17:45;;;;;;;117.97;39.60;;;7.40;99.90;;;;;;5076142;28;20031;-80
2023/12/15 04:20:12;;;;;;;136.38;39.30;;;7.40;99.90;;;;;;5067549;28;20139;-80
2023/12/15 04:22:39;;;;;;;140.90;43.85;;;7.40;99.90;;;;;;5058109;28;20394;-80
2023/12/15 04:25:05;;;;;;;151.82;46.25;;;7.40;99.90;;;;;;5073713;28;20043;-80
2023/12/15 04:27:32;;;;;;;139.85;42.55;;;7.50;99.90;;;;;;5107027;27;20050;-79
2023/12/15 04:29:58;;;;;;;134.57;41.38;;;7.40;99.90;;;;;;5104343;27;20051;-78
2023/12/15 04:32:24;;;;;;;124.65;38.03;;;7.50;99.90;;;;;;5060177;28;20043;-81
2023/12/15 04:34:51;;;;;;;115.30;36.28;;;7.50;99.90;;;;;;5103920;27;20550;-80
2023/12/15 04:37:17;;;;;;;118.22;35.38;;;7.50;99.90;;;;;;5083231;28;20394;-79
2023/12/15 04:39:46;;;;;;;123.20;38.60;;;7.50;99.90;;;;;;5082806;28;20031;-80
2023/12/15 04:42:13;;;;;;;129.23;38.67;;;7.50;99.90;;;;;;5114910;27;20279;-79
2023/12/15 04:44:40;;;;;;;140.25;42.85;;;7.50;99.90;;;;;;5093663;28;20149;-79
2023/12/15 04:47:06;;;;;;;150.75;43.67;;;7.50;99.90;;;;;;5095558;28;20032;-79
2023/12/15 04:49:33;;;;;;;149.15;44.97;;;7.50;99.90;;;;;;5090759;28;20036;-79
2023/12/15 04:51:59;;;;;;;139.82;40.80;;;7.50;99.90;;;;;;5059821;28;20047;-81
2023/12/15 04:54:26;;;;;;;149.90;43.88;;;7.50;99.90;;;;;;5071721;28;20038;-81
2023/12/15 04:56:52;;;;;;;140.38;43.20;;;7.60;99.90;;;;;;5091916;28;20036;-77
2023/12/15 04:59:18;;;;;;;148.95;46.15;;;7.60;99.90;;;;;;5071466;28;20040;-79
2023/12/15 05:01:44;;;;;;;156.95;45.05;;;7.60;99.90;;;;;;5091830;28;20020;-79
2023/12/15 05:04:11;;;;;;;137.10;40.80;;;7.60;99.90;;;;;;5092728;28;20493;-81
2023/12/15 05:06:37;;;;;;;133.45;39.00;;;7.60;99.90;;;;;;5068152;28;20032;-78
2023/12/15 05:09:08;;;;;;;124.85;37.67;;;7.60;99.90;;;;;;5060693;28;20417;-79
2023/12/15 05:11:36;;;;;;;147.93;43.15;;;7.60;99.90;;;;;;5065556;28;20032;-80
2023/12/15 05:14:02;;;;;;;164.55;45.72;;;7.70;99.90;;;;;;5095278;28;20402;-79
2023/12/15 05:16:29;;;;;;;136.65;40.67;;;7.60;99.90;;;;;;5073194;28;20027;-83
2023/12/15 05:18:55;;;;;;;128.75;38.20;;;7.60;99.90;;;;;;5080812;28;20036;-84
2023/12/15 05:21:22;;;;;;;134.60;41.05;;;7.70;99.90;;;;;;5063033;28;20040;-85
2023/12/15 05:23:48;;;;;;;152.07;46.30;;;7.60;99.90;;;;;;5070919;28;20047;-87
2023/12/15 05:26:15;;;;;;;122.13;38.22;;;7.60;99.90;;;;;;5071887;28;20031;-83
2023/12/15 05:28:44;;;;;;;123.05;39.83;;;7.60;99.90;;;;;;5058759;28;20043;-86
2023/12/15 05:31:10;;;;;;;132.68;44.03;;;7.60;99.90;;;;;;5095255;28;20055;-84
2023/12/15 05:33:36;;;;;;;144.07;44.25;;;7.60;99.90;;;;;;5078799;28;20470;-82
2023/12/15 05:36:03;;;;;;;124.95;40.50;;;7.50;99.90;;;;;;5073153;28;20424;-83
2023/12/15 05:38:29;;;;;;;131.07;41.00;;;7.60;99.90;;;;;;5079172;28;20118;-82
2023/12/15 05:40:55;;;;;;;110.13;39.35;;;7.50;99.90;;;;;;5074049;27;20046;-82
2023/12/15 05:43:22;;;;;;;107.63;37.40;;;7.50;99.90;;;;;;5059854;28;20069;-82
2023/12/15 05:45:48;;;;;;;110.07;37.35;;;7.50;99.90;;;;;;5083175;28;20517;-83
2023/12/15 05:48:14;;;;;;;121.88;38.80;;;7.50;99.90;;;;;;5074386;28;20106;-83
2023/12/15 05:50:40;;;;;;;104.00;34.70;;;7.50;99.90;;;;;;5093747;28;20044;-83
2023/12/15 05:53:07;;;;;;;94.03;32.67;;;7.50;99.90;;;;;;5093013;28;20043;-85
2023/12/15 05:55:33;;;;;;;91.47;32.50;;;7.50;99.90;;;;;;5079309;28;20501;-83
2023/12/15 05:58:00;;;;;;;89.25;33.10;;;7.60;99.90;;;;;;5076485;28;20050;-81
2023/12/15 06:00:26;;;;;;;102.90;34.17;;;7.50;99.90;;;;;;5083505;28;20504;-84
2023/12/15 06:02:52;;;;;;;96.82;33.28;;;7.60;99.90;;;;;;5071779;28;20039;-83
2023/12/15 06:05:19;;;;;;;107.72;37.03;;;7.60;99.90;;;;;;5071757;28;20513;-85
2023/12/15 06:07:45;;;;;;;96.47;36.25;;;7.60;99.90;;;;;;5070506;28;20535;-84
2023/12/15 06:10:11;;;;;;;93.40;32.35;;;7.60;99.90;;;;;;5074387;28;20043;-85
2023/12/15 06:12:37;;;;;;;113.50;38.05;;;7.60;99.90;;;;;;5076511;28;20490;-82
2023/12/15 06:15:06;;;;;;;117.20;38.35;;;7.60;99.90;;;;;;5054747;28;20039;-81
2023/12/15 06:17:32;;;;;;;106.95;36.45;;;7.70;99.90;;;;;;5070945;28;20410;-81
2023/12/15 06:19:58;;;;;;;122.03;39.85;;;7.70;99.90;;;;;;5072722;28;20043;-81
2023/12/15 06:22:25;;;;;;;121.45;40.15;;;7.70;99.90;;;;;;5078638;28;20710;-84
2023/12/15 06:24:51;;;;;;;162.60;50.63;;;7.70;99.90;;;;;;5083587;28;20031;-83
2023/12/15 06:27:17;;;;;;;141.57;44.47;;;7.70;99.90;;;;;;5071768;28;20172;-82
2023/12/15 06:29:43;;;;;;;133.10;44.90;;;7.70;99.90;;;;;;5080094;28;20039;-83
2023/12/15 06:32:12;;;;;;;114.93;38.80;;;7.70;99.90;;;;;;5070073;28;20044;-84
2023/12/15 06:34:42;;;;;;;115.20;37.35;;;7.70;99.90;;;;;;5081430;28;20110;-81
2023/12/15 06:37:08;;;;;;;114.70;36.95;;;7.80;99.90;;;;;;5071764;28;20038;-81
2023/12/15 06:39:34;;;;;;;160.70;48.22;;;7.80;99.90;;;;;;5073275;28;20024;-82
2023/12/15 06:42:02;;;;;;;132.63;44.28;;;7.80;99.90;;;;;;5073274;28;20038;-83
2023/12/15 06:44:29;;;;;;;144.18;46.65;;;7.80;99.90;;;;;;5105872;28;20050;-79
2023/12/15 06:46:55;;;;;;;117.43;40.25;;;7.80;99.90;;;;;;5062709;28;20043;-81
2023/12/15 06:49:29;;;;;;;117.10;39.10;;;7.70;99.90;;;;;;5064768;28;20398;-82
2023/12/15 06:52:00;;;;;;;116.05;37.60;;;7.80;99.90;;;;;;5073094;28;20046;-82
2023/12/15 06:54:26;;;;;;;105.45;35.28;;;7.80;99.90;;;;;;5109418;27;20032;-81
2023/12/15 06:56:52;;;;;;;101.35;35.85;;;7.80;99.90;;;;;;5075535;28;20047;-81
2023/12/15 06:59:19;;;;;;;109.45;35.67;;;7.80;99.90;;;;;;5087930;28;20050;-84
2023/12/15 07:01:46;;;;;;;111.30;36.38;;;7.80;99.90;;;;;;5068376;28;20028;-84
2023/12/15 07:04:12;;;;;;;116.80;36.47;;;7.80;99.90;;;;;;5076979;28;20036;-82
2023/12/15 07:06:38;;;;;;;111.85;36.78;;;7.90;99.90;;;;;;5061329;28;20016;-85
2023/12/15 07:09:05;;;;;;;122.70;37.38;;;7.80;99.90;;;;;;5076298;28;20047;-84
2023/12/15 07:11:31;;;;;;;102.18;34.20;;;7.80;99.90;;;;;;5070920;28;20039;-84
2023/12/15 07:13:57;;;;;;;111.60;37.05;;;7.80;99.90;;;;;;5073544;28;20494;-82
2023/12/15 07:16:24;;;;;;;105.43;34.58;;;7.90;99.90;;;;;;5070025;28;20028;-85
2023/12/15 07:18:50;;;;;;;130.88;41.40;;;7.80;99.90;;;;;;5080408;28;20046;-82
2023/12/15 07:21:16;;;;;;;103.50;34.80;;;7.90;99.90;;;;;;5070072;28;20406;-85
2023/12/15 07:23:43;;;;;;;110.15;35.03;;;7.80;99.90;;;;;;5078898;28;20036;-84
2023/12/15 07:26:10;;;;;;;114.75;37.38;;;7.90;99.90;;;;;;5106587;27;20031;-85
2023/12/15 07:28:36;;;;;;;141.07;44.65;;;7.90;99.90;;;;;;5074301;28;20040;-82
2023/12/15 07:31:03;;;;;;;150.52;48.53;;;7.90;99.90;;;;;;5057908;28;20035;-85
2023/12/15 07:33:29;;;;;;;131.70;44.70;;;7.90;99.90;;;;;;5069321;28;20418;-83
2023/12/15 07:35:55;;;;;;;138.68;44.10;;;7.90;99.90;;;;;;5062496;28;20043;-84
2023/12/15 07:38:22;;;;;;;119.53;41.35;;;7.90;99.90;;;;;;5073132;28;20078;-84
2023/12/15 07:40:53;;;;;;;120.85;41.80;;;7.90;99.90;;;;;;5095054;27;20028;-81
2023/12/15 07:43:21;;;;;;;113.53;37.95;;;7.90;99.90;;;;;;5075895;28;20376;-84
2023/12/15 07:45:47;;;;;;;174.23;51.55;;;7.90;99.90;;;;;;5067272;28;20502;-81
2023/12/15 07:48:13;;;;;;;131.60;41.05;;;7.90;99.90;;;;;;5114662;27;20039;-84
2023/12/15 07:50:39;;;;;;;110.85;37.47;;;7.90;99.90;;;;;;5052220;28;20047;-84
2023/12/15 07:53:06;;;;;;;135.10;43.67;;;7.90;99.90;;;;;;5097127;28;20514;-83
2023/12/15 07:55:32;;;;;;;124.15;43.65;;;7.90;99.90;;;;;;5072520;28;20513;-80
2023/12/15 07:57:58;;;;;;;107.60;36.25;;;7.90;99.90;;;;;;5091616;28;20403;-84
2023/12/15 08:00:25;;;;;;;144.07;48.65;;;7.90;99.90;;;;;;5080741;28;20047;-84
2023/12/15 08:02:51;;;;;;;127.20;43.78;;;7.90;99.90;;;;;;5077414;28;20498;-84
2023/12/15 08:05:18;;;;;;;124.10;42.55;;;8.00;99.90;;;;;;5075665;28;20418;-83
2023/12/15 08:07:44;;;;;;;105.05;35.40;;;8.00;99.90;;;;;;5076088;28;20050;-83
2023/12/15 08:10:10;;;;;;;110.63;37.97;;;8.00;99.90;;;;;;5078518;28;20036;-84
2023/12/15 08:12:36;;;;;;;156.90;50.08;;;8.00;99.90;;;;;;5077130;28;20046;-82
2023/12/15 08:15:04;;;;;;;108.75;39.08;;;8.00;99.90;;;;;;5090663;28;20039;-81
2023/12/15 08:17:31;;;;;;;95.00;33.72;;;8.00;99.90;;;;;;5070233;28;20530;-84
2023/12/15 08:19:57;;;;;;;110.32;36.95;;;8.10;99.90;;;;;;5070539;28;20062;-84
2023/12/15 08:22:23;;;;;;;107.00;38.33;;;8.10;99.90;;;;;;5059768;28;20530;-83
2023/12/15 08:24:50;;;;;;;116.78;40.88;;;8.10;99.90;;;;;;5073839;28;20522;-84
2023/12/15 08:27:20;;;;;;;113.53;38.78;;;8.10;99.90;;;;;;5105359;27;20036;-85
2023/12/15 08:29:46;;;;;;;100.05;38.15;;;8.00;99.90;;;;;;5089696;28;20497;-84
2023/12/15 08:32:13;;;;;;;108.75;41.28;;;8.10;99.90;;;;;;5073785;28;20043;-83
2023/12/15 08:34:42;;;;;;;113.93;42.42;;;8.10;99.90;;;;;;5088019;28;20383;-85
2023/12/15 08:37:08;;;;;;;98.95;39.25;;;8.10;99.90;;;;;;5072762;28;20038;-81
2023/12/15 08:39:34;;;;;;;99.57;37.03;;;8.10;99.90;;;;;;5079780;27;20050;-83
2023/12/15 08:42:00;;;;;;;106.00;37.55;;;8.10;99.90;;;;;;5102726;27;20039;-83
2023/12/15 08:44:27;;;;;;;87.75;33.80;;;8.20;99.90;;;;;;5074885;28;20470;-83
2023/12/15 08:46:53;;;;;;;89.22;33.53;;;8.20;99.90;;;;;;5080265;28;20509;-80
2023/12/15 08:49:19;;;;;;;87.55;32.80;;;8.20;99.90;;;;;;5063836;28;20031;-85
2023/12/15 08:51:46;;;;;;;89.28;31.98;;;8.20;99.90;;;;;;5100093;28;20044;-85
2023/12/15 08:54:12;;;;;;;85.65;32.88;;;8.20;99.90;;;;;;5111052;27;20036;-83
2023/12/15 08:56:38;;;;;;;90.90;34.45;;;8.20;99.90;;;;;;5099627;28;20028;-86
2023/12/15 08:59:05;;;;;;;82.00;31.83;;;8.30;99.90;;;;;;5095536;28;20046;-86
2023/12/15 09:01:33;;;;;;;81.25;32.40;;;8.30;99.90;;;;;;5081489;28;20414;-78
2023/12/15 09:03:59;;;;;;;95.50;36.80;;;8.30;99.90;;;;;;5058249;28;20402;-84
2023/12/15 09:06:25;;;;;;;116.40;45.33;;;8.30;99.90;;;;;;5078646;28;20031;-78
2023/12/15 09:08:51;;;;;;;89.00;37.00;;;8.30;99.90;;;;;;5111869;27;20620;-83
2023/12/15 09:11:18;;;;;;;87.63;33.88;;;8.40;99.90;;;;;;5089563;28;20031;-82
2023/12/15 09:13:44;;;;;;;88.75;34.63;;;8.40;99.90;;;;;;5108759;27;20028;-83
2023/12/15 09:16:11;;;;;;;95.00;34.50;;;8.50;99.90;;;;;;5073764;28;20145;-84
2023/12/15 09:18:37;;;;;;;88.50;35.60;;;8.50;99.90;;;;;;5079317;28;20035;-83
2023/12/15 09:21:03;;;;;;;95.30;36.17;;;8.50;99.90;;;;;;5078661;28;20054;-83
2023/12/15 09:23:30;;;;;;;105.75;39.35;;;8.50;99.90;;;;;;5091421;28;20398;-83
2023/12/15 09:25:56;;;;;;;113.95;40.78;;;8.60;99.90;;;;;;5092152;27;20036;-81
2023/12/15 09:28:22;;;;;;;100.60;39.20;;;8.60;99.90;;;;;;5103744;28;20032;-81
2023/12/15 09:30:49;;;;;;;89.47;34.70;;;8.60;99.90;;;;;;5088864;28;20055;-85
2023/12/15 09:33:15;;;;;;;95.22;35.83;;;8.60;99.90;;;;;;5061890;28;20032;-83
2023/12/15 09:35:41;;;;;;;95.30;38.85;;;8.60;99.90;;;;;;5086849;28;20039;-83
2023/12/15 09:38:07;;;;;;;95.18;36.08;;;8.60;99.90;;;;;;5078727;28;20054;-85
2023/12/15 09:40:35;;;;;;;76.75;32.22;;;8.70;99.90;;;;;;5067750;28;20394;-82
2023/12/15 09:43:01;;;;;;;76.15;29.98;;;8.70;99.90;;;;;;5065736;28;20506;-81
2023/12/15 09:45:29;;;;;;;72.50;29.83;;;8.70;99.90;;;;;;5096426;28;20046;-81
2023/12/15 09:47:56;;;;;;;77.22;30.42;;;8.80;99.90;;;;;;5075014;28;20036;-82
2023/12/15 09:50:27;;;;;;;80.90;30.67;;;8.80;99.90;;;;;;5082785;28;20572;-83
2023/12/15 09:52:55;;;;;;;79.35;31.70;;;8.80;99.90;;;;;;5071302;28;20047;-84
2023/12/15 09:55:22;;;;;;;73.93;29.60;;;8.90;99.90;;;;;;5080555;28;20027;-83
2023/12/15 09:57:49;;;;;;;78.07;31.20;;;8.90;99.90;;;;;;5063847;28;20028;-83
2023/12/15 10:00:16;;;;;;;83.20;31.70;;;8.90;99.90;;;;;;5097737;27;20350;-84
2023/12/15 10:02:42;;;;;;;79.93;30.52;;;9.00;99.90;;;;;;5079178;28;20032;-82
2023/12/15 10:05:09;;;;;;;67.47;27.85;;;9.10;99.90;;;;;;5070604;28;20462;-82
2023/12/15 10:07:35;;;;;;;68.10;27.55;;;9.00;99.90;;;;;;5087963;28;20027;-84
2023/12/15 10:10:02;;;;;;;56.08;24.30;;;9.10;99.90;;;;;;5085417;28;20032;-82
2023/12/15 10:12:31;;;;;;;61.13;27.27;;;9.20;99.90;;;;;;5113028;27;20022;-84
2023/12/15 10:14:58;;;;;;;70.22;28.52;;;9.20;99.90;;;;;;5085054;28;20050;-85
2023/12/15 10:17:24;;;;;;;66.40;29.52;;;9.30;99.90;;;;;;5071786;28;20417;-80
2023/12/15 10:20:05;;;;;;;60.45;24.30;;;9.30;99.90;;;;;;5067098;28;20399;-82
2023/12/15 10:22:31;;;;;;;61.90;25.83;;;9.30;99.90;;;;;;5084577;28;20027;-85
2023/12/15 10:24:58;;;;;;;62.05;25.95;;;9.30;99.90;;;;;;5047742;28;20032;-78
2023/12/15 10:27:24;;;;;;;57.95;25.75;;;9.40;99.90;;;;;;5083768;27;20493;-84
2023/12/15 10:29:51;;;;;;;64.15;27.23;;;9.40;99.90;;;;;;5074662;28;20488;-79
2023/12/15 10:32:18;;;;;;;55.78;23.40;;;9.40;99.90;;;;;;5064355;27;20394;-81
2023/12/15 10:34:44;;;;;;;54.75;22.92;;;9.40;99.90;;;;;;5078989;27;20036;-84
2023/12/15 10:37:10;;;;;;;49.33;20.95;;;9.40;99.90;;;;;;5085721;27;20031;-82
2023/12/15 10:39:36;;;;;;;47.40;20.38;;;9.50;99.90;;;;;;5083419;27;20597;-81
2023/12/15 10:42:04;;;;;;;50.67;22.80;;;9.50;99.90;;;;;;5095341;27;20437;-80
2023/12/15 10:44:31;;;;;;;44.03;22.70;;;9.50;99.90;;;;;;5077092;28;20040;-82
2023/12/15 10:46:59;;;;;;;49.53;23.05;;;9.50;99.90;;;;;;5078064;27;20499;-83
2023/12/15 10:49:27;;;;;;;58.70;24.10;;;9.50;99.90;;;;;;5051411;27;20023;-83
2023/12/15 10:51:54;;;;;;;48.35;22.08;;;9.50;99.90;;;;;;5077077;27;20043;-82
2023/12/15 10:54:20;;;;;;;57.85;24.10;;;9.50;99.90;;;;;;5097515;27;20020;-83
2023/12/15 10:56:51;;;;;;;48.10;22.23;;;9.60;99.90;;;;;;5083173;27;20035;-81
2023/12/15 10:59:17;;;;;;;50.75;19.95;;;9.60;99.90;;;;;;5099554;27;20383;-79
2023/12/15 11:01:46;;;;;;;52.05;22.33;;;9.70;99.90;;;;;;5051911;27;20395;-80
2023/12/15 11:04:22;;;;;;;62.05;23.17;;;9.70;99.90;;;;;;5065453;27;20493;-83
2023/12/15 11:06:49;;;;;;;43.47;20.60;;;9.70;99.90;;;;;;5085887;28;20438;-78
2023/12/15 11:09:28;;;;;;;54.72;23.77;;;9.70;99.90;;;;;;5068911;28;20035;-79
2023/12/15 11:12:23;;;;;;;46.13;20.55;;;9.70;99.90;;;;;;5062225;28;20042;-80
2023/12/15 11:14:52;;;;;;;38.38;17.83;;;9.70;99.90;;;;;;5075859;27;20051;-82
2023/12/15 11:17:18;;;;;;;40.33;17.90;;;9.70;99.90;;;;;;5111161;27;20027;-79
2023/12/15 11:19:45;;;;;;;53.00;22.40;;;9.70;99.90;;;;;;5088019;27;20031;-83
2023/12/15 11:22:11;;;;;;;47.67;20.20;;;9.70;99.90;;;;;;5080983;28;20028;-82
2023/12/15 11:24:38;;;;;;;47.25;22.40;;;9.80;99.90;;;;;;5080159;28;20035;-78
2023/12/15 11:27:05;;;;;;;42.63;18.58;;;9.80;99.90;;;;;;5077432;28;20478;-75
2023/12/15 11:29:38;;;;;;;39.05;18.02;;;9.80;99.90;;;;;;5080641;28;20024;-78
2023/12/15 11:32:29;;;;;;;38.85;18.52;;;9.90;99.90;;;;;;5067758;28;20044;-81
2023/12/15 11:34:55;;;;;;;46.50;19.10;;;9.90;99.90;;;;;;5058396;28;20504;-80
2023/12/15 11:37:22;;;;;;;50.00;20.83;;;9.90;99.90;;;;;;5069780;27;20047;-78
2023/12/15 11:39:49;;;;;;;39.50;17.88;;;9.90;99.90;;;;;;5054067;28;20045;-79
2023/12/15 11:42:16;;;;;;;39.47;16.88;;;9.90;99.90;;;;;;5081735;27;20035;-78
2023/12/15 11:44:45;;;;;;;35.67;17.33;;;9.90;99.90;;;;;;5079065;27;20786;-78
2023/12/15 11:47:12;;;;;;;34.25;16.20;;;10.00;99.90;;;;;;5064698;28;20035;-82
2023/12/15 11:49:42;;;;;;;35.92;16.92;;;10.00;99.90;;;;;;5082787;28;20402;-86
2023/12/15 11:52:11;;;;;;;42.10;18.65;;;10.10;99.90;;;;;;5068693;28;20475;-84
2023/12/15 11:54:38;;;;;;;38.00;17.20;;;10.10;99.90;;;;;;5084446;27;20016;-80
2023/12/15 11:57:05;;;;;;;33.28;16.33;;;10.10;99.90;;;;;;5070233;28;20032;-80
2023/12/15 11:59:36;;;;;;;34.42;14.93;;;10.20;99.90;;;;;;5074117;28;20032;-78
2023/12/15 12:02:05;;;;;;;26.73;14.05;;;10.30;99.90;;;;;;5078185;28;20036;-81
2023/12/15 12:04:31;;;;;;;37.63;16.02;;;10.30;99.90;;;;;;5076318;27;20027;-80
2023/12/15 12:06:58;;;;;;;31.15;15.60;;;10.30;99.90;;;;;;5076363;28;20042;-83
2023/12/15 12:09:25;;;;;;;29.35;13.98;;;10.40;99.90;;;;;;5062372;27;20038;-81
2023/12/15 12:11:55;;;;;;;24.77;14.02;;;10.40;99.90;;;;;;5062114;28;20570;-80
2023/12/15 12:14:23;;;;;;;29.92;14.65;;;10.40;99.90;;;;;;5055221;28;20062;-82
2023/12/15 12:16:51;;;;;;;28.35;14.23;;;10.40;99.90;;;;;;5079067;27;20044;-80
2023/12/15 12:19:18;;;;;;;27.25;13.50;;;10.50;99.90;;;;;;5100944;28;20040;-83
2023/12/15 12:21:45;;;;;;;29.52;15.00;;;10.50;99.90;;;;;;5076316;28;20038;-83
2023/12/15 12:24:12;;;;;;;31.00;14.88;;;10.60;99.90;;;;;;5065338;28;20047;-80
2023/12/15 12:26:40;;;;;;;30.65;14.02;;;10.70;99.90;;;;;;5063594;28;20028;-79
2023/12/15 12:29:06;;;;;;;26.08;12.52;;;10.70;99.90;;;;;;5078259;28;20429;-83